Asheville Regional Airport
KAVL : rendu visible

Aérodrome :











RETROUVEZ-NOUS SUR...

 
LOGIN :

S'inscrire | Disclaimer

   EN    FR    IT 

 









Légende :    VFR   VFR Marginal   IFR   IFR Intensif   IFR Très Intensif
Visi : 
Plafond : 
>= 8 km
>= 3000ft
5 à 8 km
1000 à 3000 ft
1500m à 5 km
500 à 1000 ft
800 à 1500m
200 à 500 ft
< 800m
< 200 ft
Symboles :   Orages  Brouillard  Fortes neiges  Fortes précipitations  Vent > 20 kt






- Altitude de l'aérodrome : 2165 ft
- Code IATA : AVL


KAVL - Asheville Regional

DERNIER METAR :
  • 211654Z 15007KT 10SM CLR 14/03 A3023 RMK AO2 SLP234 T01390028

METARs EXPIRÉS :
  • 211554Z 15003KT 10SM CLR 11/02 A3026 RMK AO2 SLP247 T01060022
  • 211454Z 15004KT 10SM CLR 07/03 A3029 RMK AO2 SLP257 T00720028 50003

TAF KAVL
Valide du 21 à 12h jusqu'au 22 à 12h UTC


211130Z 2112/2212 00000KT P6SM BKN250
FM211400 17003KT P6SM BKN250
FM211700 19005KT P6SM BKN250
FM220200 16003KT P6SM SCT100 BKN250



MET'MAP, la Météo Aéronautique d'un coup d'oeil ! - Copyright ORBIFLY Décembre 2007 - Disclaimer

ORBIFLY MET'MAP TEAM :

Programmation & Développement : Alexandra Zaïnal
Conception & Développement : Baudouin d'Aumeries
Co-Programmation & Développement : Marc-Olivier Méhu
Soutien technique & logistique : Manuel Goepfert

Contact : metmap@orbifly.com




SOURCES & CREDITS :

   NOAA       Earth
Advisory